Time;durP1;ratioP1;P1;durP2;ratioP2;P2;SDS_P1;SDS_P2;PMS_P1;PMS_P2;Temp;Humidity;BMP_temperature;BMP_pressure;BME280_temperature;BME280_humidity;BME280_pressure;Samples;Min_cycle;Max_cycle;Signal;HPM_P1;HPM_P2
2024/02/24 00:02:10;;;;;;;0.00;0.00;;;24.30;45.50;;;;;;4995124;28;20209;-42
2024/02/24 00:04:40;;;;;;;0.00;0.00;;;24.40;45.60;;;;;;5010573;28;20203;-41
2024/02/24 00:07:11;;;;;;;0.00;0.00;;;24.40;45.60;;;;;;5014377;28;20424;-41
2024/02/24 00:09:43;;;;;;;0.00;0.00;;;24.40;45.50;;;;;;5014118;28;20689;-41
2024/02/24 00:12:14;;;;;;;0.00;0.00;;;24.40;45.40;;;;;;5014342;28;20212;-41
2024/02/24 00:14:45;;;;;;;0.10;0.10;;;24.40;45.40;;;;;;5014573;28;20560;-41
2024/02/24 00:17:15;;;;;;;0.00;0.00;;;24.50;45.50;;;;;;5014795;28;20196;-41
2024/02/24 00:19:46;;;;;;;0.00;0.00;;;24.50;45.50;;;;;;5014328;28;20711;-41
2024/02/24 00:22:17;;;;;;;0.00;0.00;;;24.50;45.50;;;;;;5014348;28;20205;-41
2024/02/24 00:24:49;;;;;;;0.00;0.00;;;24.50;45.50;;;;;;5014138;28;20201;-41
2024/02/24 00:27:20;;;;;;;0.00;0.00;;;24.50;45.50;;;;;;5014054;28;20227;-41
2024/02/24 00:29:51;;;;;;;0.00;0.00;;;24.50;45.50;;;;;;5014198;28;20216;-41
2024/02/24 00:32:22;;;;;;;0.00;0.00;;;24.50;45.50;;;;;;5014354;28;20204;-41
2024/02/24 00:34:52;;;;;;;0.00;0.00;;;24.50;45.60;;;;;;5014260;28;20204;-41
2024/02/24 00:37:23;;;;;;;0.00;0.00;;;24.50;45.60;;;;;;5014149;28;20204;-41
2024/02/24 00:39:56;;;;;;;0.00;0.00;;;24.60;45.60;;;;;;5013417;28;20382;-41
2024/02/24 00:42:27;;;;;;;0.00;0.00;;;24.60;45.60;;;;;;5014129;28;20201;-42
2024/02/24 00:44:58;;;;;;;0.00;0.00;;;24.60;45.70;;;;;;5014004;28;20196;-41
2024/02/24 00:47:28;;;;;;;0.00;0.00;;;24.60;45.70;;;;;;5013167;28;20722;-42
2024/02/24 00:49:59;;;;;;;0.00;0.00;;;24.60;45.70;;;;;;5013477;28;20626;-41
2024/02/24 00:52:30;;;;;;;0.00;0.00;;;24.70;45.80;;;;;;5013698;28;20561;-41
2024/02/24 00:55:03;;;;;;;0.00;0.00;;;24.70;45.70;;;;;;5013414;28;20197;-42
2024/02/24 00:57:33;;;;;;;0.00;0.00;;;24.70;45.80;;;;;;5011407;28;20612;-40
2024/02/24 01:00:04;;;;;;;0.00;0.00;;;24.70;45.70;;;;;;5013195;28;20216;-41
2024/02/24 01:02:35;;;;;;;0.00;0.00;;;24.70;45.70;;;;;;5013228;28;20578;-43
2024/02/24 01:05:06;;;;;;;0.00;0.00;;;24.70;45.70;;;;;;5013798;28;20192;-43
2024/02/24 01:07:36;;;;;;;0.00;0.00;;;24.80;45.70;;;;;;5011890;28;20632;-43
2024/02/24 01:10:10;;;;;;;0.00;0.00;;;24.80;45.60;;;;;;5013179;28;20236;-44
2024/02/24 01:12:41;;;;;;;0.00;0.00;;;24.80;45.60;;;;;;5012951;28;20197;-43
2024/02/24 01:15:10;;;;;;;0.00;0.00;;;24.80;45.50;;;;;;5013143;28;20581;-43
2024/02/24 01:17:41;;;;;;;0.00;0.00;;;24.90;46.20;;;;;;5010109;28;20185;-43
2024/02/24 01:20:12;;;;;;;0.00;0.00;;;24.90;45.50;;;;;;5013532;28;20212;-43
2024/02/24 01:22:45;;;;;;;0.00;0.00;;;24.90;45.50;;;;;;5013338;28;20208;-43
2024/02/24 01:25:17;;;;;;;0.00;0.00;;;24.90;45.50;;;;;;5013019;28;20571;-44
2024/02/24 01:27:49;;;;;;;0.00;0.00;;;24.90;45.30;;;;;;5012945;28;20708;-43
2024/02/24 01:30:20;;;;;;;0.00;0.00;;;25.00;45.40;;;;;;5012612;28;20279;-42
2024/02/24 01:32:51;;;;;;;0.00;0.00;;;25.00;45.40;;;;;;5012688;28;20197;-44
2024/02/24 01:35:21;;;;;;;0.00;0.00;;;25.00;45.40;;;;;;5012826;28;20205;-43
2024/02/24 01:37:52;;;;;;;0.00;0.00;;;25.00;45.40;;;;;;5009339;28;20598;-43
2024/02/24 01:40:24;;;;;;;0.00;0.00;;;25.00;45.40;;;;;;5012530;28;20704;-43
2024/02/24 01:42:55;;;;;;;0.00;0.00;;;25.00;45.40;;;;;;5013189;28;20569;-43
2024/02/24 01:45:26;;;;;;;0.08;0.08;;;25.00;45.30;;;;;;5012926;28;20267;-43
2024/02/24 01:47:57;;;;;;;0.00;0.00;;;25.10;45.40;;;;;;5012647;28;20232;-42
2024/02/24 01:50:28;;;;;;;0.00;0.00;;;25.10;45.30;;;;;;5002413;28;20226;-43
2024/02/24 01:52:59;;;;;;;0.00;0.00;;;25.10;45.30;;;;;;5010966;28;20208;-43
2024/02/24 01:55:31;;;;;;;0.00;0.00;;;25.10;45.10;;;;;;5011593;28;20193;-43
2024/02/24 01:58:03;;;;;;;0.00;0.00;;;25.10;45.10;;;;;;5012536;28;20573;-43
2024/02/24 02:00:34;;;;;;;0.00;0.00;;;25.10;45.00;;;;;;5012217;28;20224;-43
2024/02/24 02:03:06;;;;;;;0.00;0.00;;;25.10;45.00;;;;;;5011995;28;20713;-43
2024/02/24 02:05:36;;;;;;;0.00;0.00;;;25.20;45.00;;;;;;5013011;28;20205;-42
2024/02/24 02:08:07;;;;;;;0.00;0.00;;;25.20;45.00;;;;;;4992944;28;20226;-41
2024/02/24 02:10:51;;;;;;;0.00;0.00;;;25.20;45.00;;;;;;4992475;28;20221;-40
2024/02/24 02:13:22;;;;;;;0.00;0.00;;;25.20;44.90;;;;;;4991904;28;20537;-41
2024/02/24 02:15:54;;;;;;;0.00;0.00;;;25.20;44.80;;;;;;4993081;28;20201;-41
2024/02/24 02:18:25;;;;;;;0.00;0.00;;;25.20;44.80;;;;;;4992899;28;20220;-41
2024/02/24 02:20:56;;;;;;;0.00;0.00;;;25.30;44.80;;;;;;4992644;28;20217;-41
2024/02/24 02:23:29;;;;;;;0.00;0.00;;;25.20;44.80;;;;;;4992739;28;20220;-41
2024/02/24 02:25:59;;;;;;;0.00;0.00;;;25.20;44.80;;;;;;4992277;28;20205;-41
2024/02/24 02:28:30;;;;;;;0.00;0.00;;;25.30;44.80;;;;;;4992154;28;20224;-41
2024/02/24 02:31:01;;;;;;;0.00;0.00;;;25.30;44.90;;;;;;4992253;28;20213;-43
2024/02/24 02:33:32;;;;;;;0.00;0.00;;;25.30;45.50;;;;;;4992396;28;20266;-42
2024/02/24 02:36:03;;;;;;;0.00;0.00;;;25.30;44.80;;;;;;4995098;28;20215;-41
2024/02/24 02:38:36;;;;;;;0.00;0.00;;;25.30;44.80;;;;;;5011983;28;20652;-41
2024/02/24 02:41:06;;;;;;;0.00;0.00;;;25.30;44.80;;;;;;5011529;28;20197;-42
2024/02/24 02:43:37;;;;;;;0.00;0.00;;;25.30;44.80;;;;;;5010987;28;20197;-41
2024/02/24 02:46:08;;;;;;;0.00;0.00;;;25.30;44.70;;;;;;5011927;28;20208;-41
2024/02/24 02:48:41;;;;;;;0.00;0.00;;;25.40;44.70;;;;;;5011493;28;20247;-41
2024/02/24 02:51:10;;;;;;;0.00;0.00;;;25.40;44.70;;;;;;5011909;28;20196;-42
2024/02/24 02:53:43;;;;;;;0.00;0.00;;;25.40;44.70;;;;;;5011923;28;20288;-42
2024/02/24 02:56:20;;;;;;;0.00;0.00;;;25.40;44.60;;;;;;5011634;28;20196;-42
2024/02/24 02:58:51;;;;;;;0.00;0.00;;;25.40;44.60;;;;;;5011591;28;20254;-40
2024/02/24 03:01:21;;;;;;;0.00;0.00;;;25.50;44.60;;;;;;5011433;28;20196;-40
2024/02/24 03:03:52;;;;;;;0.00;0.00;;;25.40;44.60;;;;;;5005196;28;20197;-41
2024/02/24 03:06:24;;;;;;;0.00;0.00;;;25.50;44.60;;;;;;5002722;28;20216;-41
2024/02/24 03:08:57;;;;;;;0.00;0.00;;;25.50;44.60;;;;;;5007447;28;20235;-41
2024/02/24 03:11:28;;;;;;;0.00;0.00;;;25.50;44.40;;;;;;5007628;28;20203;-41
2024/02/24 03:13:58;;;;;;;0.00;0.00;;;25.50;44.40;;;;;;5007681;28;20477;-42
2024/02/24 03:16:29;;;;;;;0.00;0.00;;;25.50;44.50;;;;;;5007926;28;20238;-40
2024/02/24 03:19:00;;;;;;;0.00;0.00;;;25.60;44.50;;;;;;5024994;28;20232;-41
2024/02/24 03:21:31;;;;;;;0.00;0.00;;;25.60;44.50;;;;;;4992247;28;20543;-41
2024/02/24 03:24:05;;;;;;;0.00;0.00;;;25.60;44.50;;;;;;4988103;28;20201;-42
2024/02/24 03:26:36;;;;;;;0.00;0.00;;;25.60;44.50;;;;;;4990956;28;20573;-42
2024/02/24 03:29:07;;;;;;;0.00;0.00;;;25.60;44.50;;;;;;4994379;28;20225;-41
2024/02/24 03:31:37;;;;;;;0.00;0.00;;;25.60;44.50;;;;;;5011438;28;20634;-41
2024/02/24 03:34:08;;;;;;;0.00;0.00;;;25.60;44.50;;;;;;5030840;28;20200;-41
2024/02/24 03:36:39;;;;;;;0.00;0.00;;;25.60;44.40;;;;;;5022576;28;20296;-40
2024/02/24 03:39:11;;;;;;;0.00;0.00;;;25.60;44.40;;;;;;5011657;28;20723;-41
2024/02/24 03:41:42;;;;;;;0.00;0.00;;;25.60;44.40;;;;;;5010559;28;20215;-41
2024/02/24 03:44:13;;;;;;;0.00;0.00;;;25.70;44.40;;;;;;5012714;28;20201;-42
2024/02/24 03:46:43;;;;;;;0.00;0.00;;;25.70;44.40;;;;;;5031416;28;20207;-41
2024/02/24 03:49:14;;;;;;;0.00;0.00;;;25.70;44.50;;;;;;5031348;28;20237;-39
2024/02/24 03:51:45;;;;;;;0.10;0.10;;;25.70;44.50;;;;;;5031986;28;20615;-39
2024/02/24 03:54:17;;;;;;;0.00;0.00;;;25.70;44.50;;;;;;5030434;28;20235;-38
2024/02/24 03:56:49;;;;;;;0.00;0.00;;;25.70;44.50;;;;;;5025718;28;20206;-41
2024/02/24 03:59:20;;;;;;;0.00;0.00;;;25.70;44.50;;;;;;5012515;28;20426;-38
2024/02/24 04:01:51;;;;;;;0.00;0.00;;;25.70;44.40;;;;;;5011856;28;20204;-39
2024/02/24 04:04:21;;;;;;;0.00;0.00;;;25.70;44.40;;;;;;5010961;28;20209;-38
2024/02/24 04:06:52;;;;;;;0.00;0.00;;;25.70;44.40;;;;;;5011039;28;20704;-38
2024/02/24 04:09:25;;;;;;;0.00;0.00;;;25.80;44.40;;;;;;5011239;28;20247;-43
2024/02/24 04:11:55;;;;;;;0.00;0.00;;;25.80;44.40;;;;;;5026995;28;20207;-43
2024/02/24 04:14:26;;;;;;;0.00;0.00;;;25.80;44.40;;;;;;5030925;28;20222;-43
2024/02/24 04:16:57;;;;;;;0.00;0.00;;;25.80;44.30;;;;;;5030327;28;20690;-43
2024/02/24 04:19:28;;;;;;;0.00;0.00;;;25.80;44.30;;;;;;5030752;28;20220;-43
2024/02/24 04:21:59;;;;;;;0.00;0.00;;;25.90;44.40;;;;;;5030341;28;20652;-44
2024/02/24 04:24:31;;;;;;;0.00;0.00;;;25.90;44.50;;;;;;5030213;28;20663;-43
2024/02/24 04:27:02;;;;;;;0.00;0.00;;;25.90;44.70;;;;;;5029223;28;20215;-43
2024/02/24 04:29:32;;;;;;;0.00;0.00;;;25.90;44.80;;;;;;5029760;28;20239;-42
2024/02/24 04:32:03;;;;;;;0.00;0.00;;;25.90;44.90;;;;;;5020220;28;20189;-43
2024/02/24 04:34:34;;;;;;;0.00;0.00;;;25.90;44.80;;;;;;4990768;28;20201;-42
2024/02/24 04:37:04;;;;;;;0.00;0.00;;;25.90;44.90;;;;;;5008398;28;20271;-43
2024/02/24 04:39:37;;;;;;;0.00;0.00;;;25.90;44.80;;;;;;5029653;28;20278;-43
2024/02/24 04:42:08;;;;;;;0.00;0.00;;;25.90;44.80;;;;;;5030531;28;20200;-42
2024/02/24 04:44:39;;;;;;;0.00;0.00;;;25.90;44.80;;;;;;4998226;28;20204;-43
2024/02/24 04:47:09;;;;;;;0.00;0.00;;;25.90;44.80;;;;;;4991222;28;20297;-42
2024/02/24 04:49:40;;;;;;;0.00;0.00;;;25.90;44.80;;;;;;4990541;28;20635;-42
2024/02/24 04:52:11;;;;;;;0.00;0.00;;;25.90;44.90;;;;;;5026563;28;20217;-42
2024/02/24 04:54:43;;;;;;;0.00;0.00;;;25.90;44.80;;;;;;5018234;28;20208;-43
2024/02/24 04:57:14;;;;;;;0.00;0.00;;;25.90;44.80;;;;;;5009934;28;20200;-43
2024/02/24 04:59:45;;;;;;;0.00;0.00;;;25.90;44.80;;;;;;5004479;28;20217;-43
2024/02/24 05:02:15;;;;;;;0.00;0.00;;;25.90;44.80;;;;;;5013543;28;20619;-43
2024/02/24 05:04:46;;;;;;;0.00;0.00;;;25.90;44.80;;;;;;5014344;28;20200;-42
2024/02/24 05:07:17;;;;;;;0.00;0.00;;;26.00;44.90;;;;;;5013109;28;20231;-43
2024/02/24 05:09:49;;;;;;;0.00;0.00;;;26.00;44.80;;;;;;5013560;28;20232;-43
2024/02/24 05:12:20;;;;;;;0.00;0.00;;;25.90;44.70;;;;;;5010094;28;20684;-43
2024/02/24 05:14:51;;;;;;;0.00;0.00;;;26.00;44.80;;;;;;5013301;28;20680;-42
2024/02/24 05:17:22;;;;;;;0.00;0.00;;;26.00;44.80;;;;;;5013419;28;20192;-42
2024/02/24 05:19:52;;;;;;;0.00;0.00;;;26.00;44.80;;;;;;5009808;28;20209;-42
2024/02/24 05:22:23;;;;;;;0.00;0.00;;;26.00;44.80;;;;;;5012999;28;20668;-44
2024/02/24 05:24:55;;;;;;;0.00;0.00;;;26.00;44.80;;;;;;5012823;28;20203;-43
2024/02/24 05:27:26;;;;;;;0.00;0.00;;;26.00;44.80;;;;;;5012581;28;20204;-42
2024/02/24 05:29:57;;;;;;;0.00;0.00;;;26.00;44.80;;;;;;5012911;28;20240;-43
2024/02/24 05:32:27;;;;;;;0.00;0.00;;;26.00;44.80;;;;;;5013092;28;20204;-43
2024/02/24 05:34:58;;;;;;;0.00;0.00;;;26.00;44.80;;;;;;5012600;28;20563;-43
2024/02/24 05:37:29;;;;;;;0.00;0.00;;;26.00;44.80;;;;;;4998885;28;20565;-43
2024/02/24 05:40:01;;;;;;;0.00;0.00;;;26.00;44.80;;;;;;4993118;28;20619;-42
2024/02/24 05:42:32;;;;;;;0.00;0.00;;;26.00;44.90;;;;;;4992935;28;20204;-43
2024/02/24 05:45:03;;;;;;;0.00;0.00;;;26.00;44.80;;;;;;4992707;28;20205;-42
2024/02/24 05:47:33;;;;;;;0.00;0.00;;;26.00;44.90;;;;;;4992006;28;20241;-43
2024/02/24 05:50:04;;;;;;;0.00;0.00;;;26.00;44.90;;;;;;4992954;28;20236;-43
2024/02/24 05:52:35;;;;;;;0.00;0.00;;;26.00;45.00;;;;;;4992760;28;20562;-43
2024/02/24 05:55:10;;;;;;;0.00;0.00;;;26.00;45.00;;;;;;5002327;28;20259;-43
2024/02/24 05:57:40;;;;;;;0.00;0.00;;;26.00;44.90;;;;;;5010757;28;20200;-42
2024/02/24 06:00:12;;;;;;;0.00;0.00;;;26.10;45.00;;;;;;4992178;28;20214;-43
2024/02/24 06:02:42;;;;;;;0.00;0.00;;;26.10;44.90;;;;;;4992414;28;20654;-44
2024/02/24 06:05:13;;;;;;;0.00;0.00;;;26.10;44.90;;;;;;4992249;28;20597;-42
2024/02/24 06:07:44;;;;;;;0.00;0.00;;;26.10;44.90;;;;;;5008910;28;20204;-43
2024/02/24 06:10:16;;;;;;;0.00;0.00;;;26.10;44.90;;;;;;5012510;28;20560;-42
2024/02/24 06:12:47;;;;;;;0.00;0.00;;;26.10;44.90;;;;;;5012283;28;20197;-45
2024/02/24 06:15:18;;;;;;;0.00;0.00;;;26.10;44.90;;;;;;5012331;28;20204;-43
2024/02/24 06:17:48;;;;;;;0.00;0.00;;;26.10;44.90;;;;;;5012618;28;20201;-43
2024/02/24 06:20:19;;;;;;;0.00;0.00;;;26.20;45.00;;;;;;5011313;28;20232;-43
2024/02/24 06:22:50;;;;;;;0.00;0.00;;;26.20;45.00;;;;;;5011954;28;20661;-44
2024/02/24 06:25:23;;;;;;;0.00;0.00;;;26.10;44.90;;;;;;5011895;28;20200;-42
2024/02/24 06:27:53;;;;;;;0.00;0.00;;;26.10;44.90;;;;;;5012051;28;20196;-44
2024/02/24 06:30:24;;;;;;;0.00;0.00;;;26.10;45.00;;;;;;5011123;28;20234;-43
2024/02/24 06:32:55;;;;;;;0.00;0.00;;;26.10;45.00;;;;;;5011993;28;20204;-43
2024/02/24 06:35:25;;;;;;;0.00;0.00;;;26.20;45.00;;;;;;5011162;28;20189;-41
2024/02/24 06:37:56;;;;;;;0.00;0.00;;;26.10;44.90;;;;;;5011462;28;20452;-41
2024/02/24 06:40:29;;;;;;;0.00;0.00;;;26.20;45.00;;;;;;5011511;28;20213;-41
2024/02/24 06:42:59;;;;;;;0.00;0.00;;;26.10;45.00;;;;;;5011568;28;20235;-38
2024/02/24 06:45:30;;;;;;;0.00;0.00;;;26.20;45.00;;;;;;5011582;28;20653;-43
2024/02/24 06:48:01;;;;;;;0.00;0.00;;;26.20;45.00;;;;;;5011457;28;20201;-42
2024/02/24 06:50:31;;;;;;;0.00;0.00;;;26.10;44.90;;;;;;4996006;28;20389;-41
2024/02/24 06:53:02;;;;;;;0.00;0.00;;;26.20;45.00;;;;;;4991697;28;20197;-42
2024/02/24 06:55:35;;;;;;;0.00;0.00;;;26.20;45.00;;;;;;4991929;28;20282;-39
2024/02/24 06:58:06;;;;;;;0.00;0.00;;;26.20;45.00;;;;;;4991872;28;20204;-39
2024/02/24 07:00:36;;;;;;;0.00;0.00;;;26.20;45.00;;;;;;4991661;28;20718;-39
2024/02/24 07:03:07;;;;;;;0.00;0.00;;;26.20;45.00;;;;;;5008261;28;20544;-42
2024/02/24 07:05:38;;;;;;;0.00;0.00;;;26.20;45.00;;;;;;5011389;28;20564;-41
2024/02/24 07:08:09;;;;;;;0.00;0.00;;;26.20;45.00;;;;;;5011312;28;20603;-41
2024/02/24 07:10:45;;;;;;;0.00;0.00;;;26.20;45.00;;;;;;5011385;28;20344;-41
2024/02/24 07:13:15;;;;;;;0.00;0.00;;;26.20;45.00;;;;;;5011608;28;20201;-42
2024/02/24 07:15:46;;;;;;;0.00;0.00;;;26.20;45.00;;;;;;5009719;28;20193;-41
2024/02/24 07:18:17;;;;;;;0.00;0.00;;;26.20;45.00;;;;;;4991504;28;20197;-40
2024/02/24 07:20:47;;;;;;;0.00;0.00;;;26.20;45.00;;;;;;4990774;28;20229;-42
2024/02/24 07:23:18;;;;;;;0.00;0.00;;;26.20;45.20;;;;;;4994351;28;20204;-41
2024/02/24 07:25:51;;;;;;;0.00;0.00;;;26.20;45.30;;;;;;5006697;28;20669;-41
2024/02/24 07:28:21;;;;;;;0.00;0.00;;;26.20;45.30;;;;;;5005636;28;20676;-42
2024/02/24 07:30:52;;;;;;;0.00;0.00;;;26.20;45.30;;;;;;4989741;28;20652;-40
2024/02/24 07:33:23;;;;;;;0.00;0.00;;;26.20;45.20;;;;;;4988141;28;20206;-39
2024/02/24 07:35:55;;;;;;;0.00;0.00;;;26.20;45.20;;;;;;5001284;28;20192;-39
2024/02/24 07:38:25;;;;;;;0.00;0.00;;;26.20;45.30;;;;;;5008385;28;20200;-39
2024/02/24 07:40:58;;;;;;;0.00;0.00;;;26.20;45.20;;;;;;5007096;28;20736;-40
2024/02/24 07:43:28;;;;;;;0.00;0.00;;;26.20;45.20;;;;;;5007590;28;20209;-40
2024/02/24 07:45:59;;;;;;;0.00;0.00;;;26.20;45.20;;;;;;5008156;28;20200;-39
2024/02/24 07:48:30;;;;;;;0.00;0.00;;;26.20;45.20;;;;;;5018388;28;20230;-39
2024/02/24 07:51:00;;;;;;;0.00;0.00;;;26.20;45.20;;;;;;5026613;28;20232;-39
2024/02/24 07:53:31;;;;;;;0.00;0.00;;;26.20;45.10;;;;;;5027044;28;20196;-40
2024/02/24 07:56:04;;;;;;;0.00;0.00;;;26.20;45.10;;;;;;5006461;28;20666;-39
2024/02/24 07:58:34;;;;;;;0.00;0.00;;;26.20;45.20;;;;;;5007294;28;20653;-40
2024/02/24 08:01:05;;;;;;;0.00;0.00;;;26.20;45.10;;;;;;5005045;28;20263;-39
2024/02/24 08:03:36;;;;;;;0.00;0.00;;;26.20;45.10;;;;;;5021270;28;20245;-39
2024/02/24 08:06:07;;;;;;;0.00;0.00;;;26.20;45.10;;;;;;5006197;28;20251;-39
2024/02/24 08:08:38;;;;;;;0.00;0.00;;;26.20;45.10;;;;;;5007608;28;20232;-41
2024/02/24 08:11:10;;;;;;;0.00;0.00;;;26.20;45.10;;;;;;5007599;28;20700;-46
2024/02/24 08:13:42;;;;;;;0.00;0.00;;;26.20;45.10;;;;;;5009963;28;20589;-41
2024/02/24 08:16:14;;;;;;;0.00;0.00;;;26.20;45.00;;;;;;5022683;28;20292;-40
2024/02/24 08:18:45;;;;;;;0.00;0.00;;;26.20;45.10;;;;;;5016353;28;20196;-40
2024/02/24 08:21:15;;;;;;;0.00;0.00;;;26.20;45.10;;;;;;5010849;28;20201;-40
2024/02/24 08:23:46;;;;;;;0.00;0.00;;;26.20;45.10;;;;;;5010823;28;20218;-40
2024/02/24 08:26:19;;;;;;;0.00;0.00;;;26.20;45.10;;;;;;5008911;28;20665;-39
2024/02/24 08:28:49;;;;;;;0.00;0.00;;;26.20;45.10;;;;;;5017504;28;20212;-41
2024/02/24 08:31:20;;;;;;;0.00;0.00;;;26.20;45.20;;;;;;5030240;28;20227;-39
2024/02/24 08:33:51;;;;;;;0.00;0.00;;;26.20;45.10;;;;;;5029797;28;20200;-41
2024/02/24 08:36:21;;;;;;;0.00;0.00;;;26.20;45.10;;;;;;5003954;28;20205;-40
2024/02/24 08:38:52;;;;;;;0.00;0.00;;;26.20;45.10;;;;;;5010429;28;20204;-39
2024/02/24 08:41:25;;;;;;;0.00;0.00;;;26.20;45.10;;;;;;5010621;28;20284;-40
2024/02/24 08:43:56;;;;;;;0.00;0.00;;;26.20;45.10;;;;;;5022190;28;20309;-39
2024/02/24 08:46:26;;;;;;;0.00;0.00;;;26.20;45.20;;;;;;5030019;28;20675;-43
2024/02/24 08:48:57;;;;;;;0.00;0.00;;;26.20;45.20;;;;;;5030282;28;20215;-41
2024/02/24 08:51:29;;;;;;;0.00;0.00;;;26.20;45.20;;;;;;5022881;28;20221;-41
2024/02/24 08:53:59;;;;;;;0.00;0.00;;;26.20;45.20;;;;;;5010176;28;20197;-40
2024/02/24 08:56:32;;;;;;;0.00;0.00;;;26.20;45.20;;;;;;5011889;28;20192;-41
2024/02/24 08:59:02;;;;;;;0.00;0.00;;;26.10;45.10;;;;;;5025801;28;20732;-40
2024/02/24 09:01:33;;;;;;;0.00;0.00;;;26.10;45.10;;;;;;5009301;28;20205;-41
2024/02/24 09:04:03;;;;;;;0.00;0.00;;;26.20;45.10;;;;;;5009998;28;20193;-40
2024/02/24 09:06:35;;;;;;;0.00;0.00;;;26.10;45.10;;;;;;5009133;28;20208;-41
2024/02/24 09:09:06;;;;;;;0.00;0.00;;;26.10;45.10;;;;;;5010172;28;20241;-41
2024/02/24 09:11:39;;;;;;;0.00;0.00;;;26.10;45.10;;;;;;5023617;28;20707;-41
2024/02/24 09:14:09;;;;;;;0.00;0.00;;;26.10;45.10;;;;;;5029106;28;20683;-41
2024/02/24 09:16:40;;;;;;;0.00;0.00;;;26.10;45.10;;;;;;5029933;28;20204;-42
2024/02/24 09:19:11;;;;;;;0.00;0.00;;;26.10;45.20;;;;;;5006714;28;20415;-43
2024/02/24 09:21:41;;;;;;;0.00;0.00;;;26.10;45.20;;;;;;5010111;28;20216;-41
2024/02/24 09:24:12;;;;;;;0.05;0.05;;;26.10;45.20;;;;;;5019520;28;20208;-41
2024/02/24 09:26:44;;;;;;;0.00;0.00;;;26.10;45.20;;;;;;4991938;28;20705;-41
2024/02/24 09:29:15;;;;;;;0.00;0.00;;;26.10;45.20;;;;;;4989634;28;20221;-42
2024/02/24 09:31:46;;;;;;;0.00;0.00;;;26.10;45.20;;;;;;4989424;28;20291;-41
2024/02/24 09:34:18;;;;;;;0.00;0.00;;;26.10;45.30;;;;;;4989157;28;20205;-41
2024/02/24 09:36:49;;;;;;;0.00;0.00;;;26.10;45.30;;;;;;5015057;28;20554;-42
2024/02/24 09:39:19;;;;;;;0.00;0.00;;;26.10;45.30;;;;;;5009253;28;20221;-40
2024/02/24 09:41:52;;;;;;;0.00;0.00;;;26.10;45.30;;;;;;5009190;28;20216;-40
2024/02/24 09:44:23;;;;;;;0.00;0.00;;;26.10;45.30;;;;;;5009065;28;20712;-42
2024/02/24 09:46:54;;;;;;;0.00;0.00;;;26.10;45.30;;;;;;5008849;28;20197;-40
2024/02/24 09:49:25;;;;;;;0.00;0.00;;;26.00;45.20;;;;;;5015382;28;20219;-41
2024/02/24 09:51:56;;;;;;;0.00;0.00;;;26.10;45.30;;;;;;5028547;28;20235;-41
2024/02/24 09:54:27;;;;;;;0.00;0.00;;;26.10;45.30;;;;;;5028583;28;20215;-42
2024/02/24 09:57:00;;;;;;;0.00;0.00;;;26.10;45.30;;;;;;5028057;28;20200;-41
2024/02/24 09:59:30;;;;;;;0.00;0.00;;;26.10;45.30;;;;;;5028609;28;20231;-41
2024/02/24 10:02:01;;;;;;;0.00;0.00;;;26.10;45.20;;;;;;5028693;28;20207;-41
2024/02/24 10:04:33;;;;;;;0.00;0.00;;;26.10;45.30;;;;;;5017332;28;20197;-41
2024/02/24 10:07:04;;;;;;;0.00;0.00;;;26.00;45.30;;;;;;4999350;28;21030;-42
2024/02/24 10:09:35;;;;;;;0.00;0.00;;;26.00;45.30;;;;;;4989445;28;20224;-41
2024/02/24 10:12:09;;;;;;;0.00;0.00;;;26.00;45.30;;;;;;4988424;28;20253;-43
2024/02/24 10:14:39;;;;;;;0.00;0.00;;;26.00;45.40;;;;;;5006719;28;20199;-41
2024/02/24 10:17:11;;;;;;;0.00;0.00;;;26.00;45.40;;;;;;5027508;28;20207;-41
2024/02/24 10:19:42;;;;;;;0.00;0.00;;;26.00;45.50;;;;;;5008472;28;20229;-41
2024/02/24 10:22:17;;;;;;;0.00;0.00;;;26.00;45.50;;;;;;5014621;28;20211;-43
2024/02/24 10:24:48;;;;;;;0.00;0.00;;;26.00;45.50;;;;;;5027515;28;20207;-41
2024/02/24 10:27:22;;;;;;;0.00;0.00;;;26.00;45.60;;;;;;5027421;28;20203;-41
2024/02/24 10:29:53;;;;;;;0.00;0.00;;;26.00;45.60;;;;;;5028330;28;20224;-42
2024/02/24 10:32:24;;;;;;;0.00;0.00;;;26.00;45.60;;;;;;5027631;28;20200;-40
2024/02/24 10:34:56;;;;;;;0.00;0.00;;;26.00;45.60;;;;;;5026891;28;20188;-42
2024/02/24 10:37:28;;;;;;;0.00;0.00;;;26.00;45.60;;;;;;5013786;28;20204;-42
2024/02/24 10:40:00;;;;;;;0.00;0.00;;;26.00;45.60;;;;;;5009031;28;20217;-42
2024/02/24 10:42:32;;;;;;;0.00;0.00;;;26.00;45.70;;;;;;5008192;28;20670;-41
2024/02/24 10:45:06;;;;;;;0.00;0.00;;;26.00;45.70;;;;;;5006993;28;20197;-41
2024/02/24 10:47:37;;;;;;;0.00;0.00;;;26.00;45.70;;;;;;5010302;28;20204;-41
2024/02/24 10:50:11;;;;;;;0.00;0.00;;;26.00;45.70;;;;;;5027316;28;20692;-41
2024/02/24 10:52:42;;;;;;;0.00;0.00;;;26.00;45.80;;;;;;5014723;28;20197;-41
2024/02/24 10:55:15;;;;;;;0.00;0.00;;;26.00;45.90;;;;;;5007173;28;20204;-41
2024/02/24 10:57:48;;;;;;;0.00;0.00;;;26.00;45.90;;;;;;5006801;28;20515;-43
2024/02/24 11:00:30;;;;;;;0.10;0.10;;;26.00;46.00;;;;;;5007855;28;20221;-41
2024/02/24 11:03:02;;;;;;;0.00;0.00;;;25.90;46.00;;;;;;5021825;28;20683;-42
2024/02/24 11:05:33;;;;;;;0.00;0.00;;;25.90;45.90;;;;;;5027254;28;20734;-43
2024/02/24 11:08:04;;;;;;;0.00;0.00;;;25.90;46.00;;;;;;5008950;28;20207;-41
2024/02/24 11:10:36;;;;;;;0.00;0.00;;;25.90;46.10;;;;;;5007182;28;20705;-44
2024/02/24 11:13:08;;;;;;;0.00;0.00;;;25.90;46.10;;;;;;5006948;28;20207;-40
2024/02/24 11:15:41;;;;;;;0.00;0.00;;;25.90;46.20;;;;;;5007772;28;20262;-42
2024/02/24 11:18:12;;;;;;;0.00;0.00;;;25.90;46.20;;;;;;5011784;28;20618;-40
2024/02/24 11:20:57;;;;;;;0.00;0.00;;;25.90;46.20;;;;;;5011346;28;20499;-42
2024/02/24 11:23:32;;;;;;;0.00;0.00;;;25.90;46.40;;;;;;5011407;28;20574;-42
2024/02/24 11:26:31;;;;;;;0.00;0.00;;;25.90;46.30;;;;;;5007384;28;20656;-41
2024/02/24 11:29:10;;;;;;;0.00;0.00;;;25.90;46.40;;;;;;5009204;28;20220;-43
2024/02/24 11:31:43;;;;;;;0.05;0.05;;;25.90;46.40;;;;;;5011433;28;20274;-41
2024/02/24 11:34:15;;;;;;;0.00;0.00;;;25.90;46.40;;;;;;5011361;28;20204;-42
2024/02/24 11:36:47;;;;;;;0.00;0.00;;;25.90;46.50;;;;;;5010157;28;20196;-41
2024/02/24 11:39:20;;;;;;;0.00;0.00;;;25.90;46.60;;;;;;5002186;28;20212;-41
2024/02/24 11:41:51;;;;;;;0.00;0.00;;;25.90;46.70;;;;;;5000724;28;20201;-41
2024/02/24 11:44:23;;;;;;;0.00;0.00;;;25.90;46.70;;;;;;4999582;28;20197;-42
2024/02/24 11:46:54;;;;;;;0.00;0.00;;;25.90;46.70;;;;;;5002769;28;20197;-41
2024/02/24 11:49:26;;;;;;;0.00;0.00;;;25.90;46.70;;;;;;5003664;28;20297;-40
2024/02/24 11:51:57;;;;;;;0.00;0.00;;;25.90;46.70;;;;;;5003521;28;20256;-41
2024/02/24 11:54:28;;;;;;;0.00;0.00;;;25.90;46.70;;;;;;5003421;28;20197;-41
2024/02/24 11:56:58;;;;;;;0.00;0.00;;;25.90;46.70;;;;;;5002776;28;20193;-42
2024/02/24 11:59:34;;;;;;;0.00;0.00;;;25.90;46.70;;;;;;5005477;28;20220;-41
2024/02/24 12:02:04;;;;;;;0.00;0.00;;;25.90;46.70;;;;;;5004008;28;20203;-41
2024/02/24 12:04:35;;;;;;;0.00;0.00;;;25.80;46.60;;;;;;5005090;28;20215;-42
2024/02/24 12:07:06;;;;;;;0.00;0.00;;;25.80;46.60;;;;;;5003868;28;20201;-41
2024/02/24 12:09:37;;;;;;;0.00;0.00;;;25.80;46.60;;;;;;5004427;28;20575;-41
2024/02/24 12:12:08;;;;;;;0.00;0.00;;;25.80;46.70;;;;;;5003606;28;20392;-41
2024/02/24 12:14:41;;;;;;;0.00;0.00;;;25.80;46.70;;;;;;5003217;28;20584;-41
2024/02/24 12:17:13;;;;;;;0.00;0.00;;;25.70;46.60;;;;;;5004036;28;20189;-41
2024/02/24 12:19:45;;;;;;;0.00;0.00;;;25.70;46.70;;;;;;4999442;28;20217;-42
2024/02/24 12:22:16;;;;;;;0.00;0.00;;;25.70;46.70;;;;;;4994935;28;20201;-41
2024/02/24 12:24:47;;;;;;;0.00;0.00;;;25.70;46.60;;;;;;4994773;28;20202;-41
2024/02/24 12:27:19;;;;;;;0.00;0.00;;;25.70;46.70;;;;;;4994800;28;20201;-43
2024/02/24 12:29:53;;;;;;;0.00;0.00;;;25.70;46.70;;;;;;4994464;28;20217;-41
2024/02/24 12:32:24;;;;;;;0.00;0.00;;;25.60;46.60;;;;;;4994848;28;20227;-42
2024/02/24 12:35:05;;;;;;;0.00;0.00;;;25.60;46.60;;;;;;4994819;28;20205;-41
2024/02/24 12:37:37;;;;;;;0.00;0.00;;;25.60;46.70;;;;;;5009661;28;20265;-44
2024/02/24 12:40:08;;;;;;;0.00;0.00;;;25.60;46.70;;;;;;5013675;28;20589;-42
2024/02/24 12:42:39;;;;;;;0.00;0.00;;;25.60;46.70;;;;;;5013818;28;20200;-42
2024/02/24 12:45:12;;;;;;;0.00;0.00;;;25.50;46.60;;;;;;5013668;28;20240;-41
2024/02/24 12:47:43;;;;;;;0.00;0.00;;;25.50;46.70;;;;;;5013086;28;20203;-41
2024/02/24 12:50:13;;;;;;;0.00;0.00;;;25.50;46.80;;;;;;5014352;28;20621;-41
2024/02/24 12:52:44;;;;;;;0.00;0.00;;;25.40;46.70;;;;;;5013975;28;20228;-40
2024/02/24 12:55:15;;;;;;;0.00;0.00;;;25.40;46.70;;;;;;5013704;28;20338;-41
2024/02/24 12:57:46;;;;;;;0.00;0.00;;;25.40;46.80;;;;;;5013175;28;20637;-42
2024/02/24 13:00:20;;;;;;;0.00;0.00;;;25.40;46.70;;;;;;5013852;28;20224;-44
2024/02/24 13:02:51;;;;;;;0.00;0.00;;;25.40;46.70;;;;;;5013712;28;20679;-41
2024/02/24 13:05:21;;;;;;;0.00;0.00;;;25.30;46.70;;;;;;5013662;28;20193;-41
2024/02/24 13:07:52;;;;;;;0.00;0.00;;;25.30;46.70;;;;;;5013200;28;20677;-42
2024/02/24 13:10:23;;;;;;;0.00;0.00;;;25.30;46.70;;;;;;5013045;28;20216;-41